LZB6816 DTTJ-LBSF
Flight info
| Callsign | LZB6816 |
|---|---|
| Flight time | 2h 2m |
| Altitude | 35000 |
| Route | TRIFA1A TRIFA G362 LIRMI UG362 RALAK M742 LPD Z404 DEXOL NELDA CRN GOKEL DOBAR VELBA MOREK |
| Aircraft | A320/M-SDE3FGHIRWY/LB1 |
Departure
| Time | 2026-04-24 11:37 |
|---|---|
| Airport | Djerba Zarzis International Airport (DTTJ) |
Arrival
| Time | 2026-04-24 13:40 |
|---|---|
| Airport | Sofia Airport (LBSF) |
| Time | Latitude | Longitude | Altitude | Speed | Heading |
|---|---|---|---|---|---|
| 2026-04-24 11:10 | 33.87246 | 10.77388 | 24 ft | 0 kts | 128° |
| 2026-04-24 11:28 | 33.87246 | 10.77387 | 22 ft | 0 kts | 128° |
| 2026-04-24 11:30 | 33.87248 | 10.77385 | 22 ft | 2 kts | 128° |
| 2026-04-24 11:31 | 33.87259 | 10.77368 | 22 ft | 3 kts | 128° |
| 2026-04-24 11:31 | 33.87272 | 10.77349 | 26 ft | 3 kts | 128° |
| 2026-04-24 11:31 | 33.87284 | 10.77329 | 25 ft | 3 kts | 121° |
| 2026-04-24 11:31 | 33.87293 | 10.77308 | 23 ft | 3 kts | 108° |
| 2026-04-24 11:32 | 33.87297 | 10.77285 | 22 ft | 3 kts | 84° |
| 2026-04-24 11:32 | 33.87292 | 10.77266 | 21 ft | 2 kts | 38° |
| 2026-04-24 11:32 | 33.87288 | 10.77262 | 25 ft | 0 kts | 26° |
| 2026-04-24 11:34 | 33.87290 | 10.77263 | 23 ft | 3 kts | 26° |
| 2026-04-24 11:34 | 33.87344 | 10.77273 | 21 ft | 12 kts | 344° |
| 2026-04-24 11:34 | 33.87365 | 10.77158 | 21 ft | 20 kts | 268° |
| 2026-04-24 11:35 | 33.87360 | 10.76975 | 21 ft | 22 kts | 268° |
| 2026-04-24 11:35 | 33.87355 | 10.76786 | 20 ft | 23 kts | 266° |
| 2026-04-24 11:35 | 33.87350 | 10.76593 | 20 ft | 23 kts | 268° |
| 2026-04-24 11:35 | 33.87344 | 10.76404 | 19 ft | 22 kts | 268° |
| 2026-04-24 11:36 | 33.87340 | 10.76219 | 18 ft | 22 kts | 268° |
| 2026-04-24 11:36 | 33.87353 | 10.76072 | 19 ft | 15 kts | 304° |
| 2026-04-24 11:36 | 33.87433 | 10.76047 | 18 ft | 10 kts | 359° |
| 2026-04-24 11:36 | 33.87499 | 10.76067 | 20 ft | 10 kts | 60° |
| 2026-04-24 11:37 | 33.87509 | 10.76264 | 19 ft | 53 kts | 88° |
| 2026-04-24 11:37 | 33.87526 | 10.76977 | 20 ft | 115 kts | 88° |
| 2026-04-24 11:37 | 33.87555 | 10.78148 | 36 ft | 162 kts | 88° |
| 2026-04-24 11:37 | 33.87608 | 10.79489 | 671 ft | 158 kts | 75° |
| 2026-04-24 11:38 | 33.88107 | 10.80644 | 1342 ft | 158 kts | 41° |
| 2026-04-24 11:38 | 33.89112 | 10.81242 | 1875 ft | 172 kts | 15° |
| 2026-04-24 11:38 | 33.90348 | 10.81604 | 2240 ft | 193 kts | 15° |
| 2026-04-24 11:38 | 33.91743 | 10.82000 | 2552 ft | 219 kts | 16° |
| 2026-04-24 11:39 | 33.93127 | 10.82916 | 2949 ft | 241 kts | 43° |
| 2026-04-24 11:39 | 33.94357 | 10.84368 | 3595 ft | 253 kts | 42° |
| 2026-04-24 11:39 | 33.95653 | 10.85842 | 4424 ft | 258 kts | 41° |
| 2026-04-24 11:39 | 33.96976 | 10.87322 | 5300 ft | 262 kts | 40° |
| 2026-04-24 11:40 | 33.97720 | 10.88154 | 5751 ft | 264 kts | 40° |
| 2026-04-24 11:40 | 33.98808 | 10.89370 | 6401 ft | 268 kts | 40° |
| 2026-04-24 11:40 | 34.00186 | 10.90918 | 7164 ft | 273 kts | 40° |
| 2026-04-24 11:40 | 34.01580 | 10.92493 | 7981 ft | 276 kts | 40° |
| 2026-04-24 11:41 | 34.02988 | 10.94086 | 8789 ft | 279 kts | 39° |
| 2026-04-24 11:41 | 34.04410 | 10.95699 | 9601 ft | 282 kts | 39° |
| 2026-04-24 11:41 | 34.05850 | 10.97331 | 10353 ft | 287 kts | 39° |
| 2026-04-24 11:41 | 34.07361 | 10.99040 | 10618 ft | 310 kts | 39° |
| 2026-04-24 11:42 | 34.08989 | 11.00881 | 10790 ft | 333 kts | 40° |
| 2026-04-24 11:42 | 34.10724 | 11.02853 | 11112 ft | 349 kts | 40° |
| 2026-04-24 11:42 | 34.12500 | 11.04879 | 11717 ft | 354 kts | 40° |
| 2026-04-24 11:42 | 34.14296 | 11.06933 | 12394 ft | 357 kts | 40° |
| 2026-04-24 11:43 | 34.16107 | 11.09007 | 13071 ft | 361 kts | 41° |
| 2026-04-24 11:43 | 34.17937 | 11.11101 | 13745 ft | 364 kts | 41° |
| 2026-04-24 11:43 | 34.19786 | 11.13214 | 14355 ft | 367 kts | 41° |
| 2026-04-24 11:43 | 34.21658 | 11.15336 | 14947 ft | 371 kts | 40° |
| 2026-04-24 11:44 | 34.23552 | 11.17470 | 15532 ft | 374 kts | 40° |
| 2026-04-24 11:44 | 34.25461 | 11.19619 | 16104 ft | 377 kts | 40° |
| 2026-04-24 11:44 | 34.27384 | 11.21789 | 16671 ft | 380 kts | 40° |
| 2026-04-24 11:44 | 34.29296 | 11.23952 | 17227 ft | 383 kts | 40° |
| 2026-04-24 11:45 | 34.31244 | 11.26164 | 17790 ft | 386 kts | 41° |
| 2026-04-24 11:45 | 34.33206 | 11.28399 | 18314 ft | 389 kts | 41° |
| 2026-04-24 11:45 | 34.35182 | 11.30651 | 18803 ft | 392 kts | 41° |
| 2026-04-24 11:45 | 34.37173 | 11.32920 | 19269 ft | 394 kts | 41° |
| 2026-04-24 11:46 | 34.39183 | 11.35195 | 19725 ft | 397 kts | 40° |
| 2026-04-24 11:46 | 34.41215 | 11.37479 | 20183 ft | 400 kts | 40° |
| 2026-04-24 11:46 | 34.43265 | 11.39773 | 20628 ft | 403 kts | 40° |
| 2026-04-24 11:46 | 34.45331 | 11.42085 | 21070 ft | 405 kts | 40° |
| 2026-04-24 11:47 | 34.47409 | 11.44417 | 21498 ft | 409 kts | 40° |
| 2026-04-24 11:47 | 34.49498 | 11.46768 | 21918 ft | 412 kts | 40° |
| 2026-04-24 11:47 | 34.51601 | 11.49138 | 22346 ft | 414 kts | 40° |
| 2026-04-24 11:47 | 34.53718 | 11.51526 | 22757 ft | 417 kts | 41° |
| 2026-04-24 11:48 | 34.55843 | 11.53938 | 23170 ft | 420 kts | 41° |
| 2026-04-24 11:48 | 34.57258 | 11.55550 | 23440 ft | 422 kts | 41° |
| 2026-04-24 11:48 | 34.59401 | 11.57997 | 23818 ft | 424 kts | 41° |
| 2026-04-24 11:48 | 34.61554 | 11.60462 | 24150 ft | 427 kts | 40° |
| 2026-04-24 11:49 | 34.63716 | 11.62939 | 24495 ft | 428 kts | 40° |
| 2026-04-24 11:49 | 34.65887 | 11.65431 | 24839 ft | 430 kts | 40° |
| 2026-04-24 11:49 | 34.68063 | 11.67930 | 25195 ft | 432 kts | 40° |
| 2026-04-24 11:49 | 34.70255 | 11.70441 | 25549 ft | 433 kts | 40° |
| 2026-04-24 11:50 | 34.72452 | 11.72957 | 25874 ft | 435 kts | 40° |
| 2026-04-24 11:50 | 34.74662 | 11.75487 | 26200 ft | 437 kts | 40° |
| 2026-04-24 11:50 | 34.76880 | 11.78026 | 26532 ft | 439 kts | 40° |
| 2026-04-24 11:50 | 34.79105 | 11.80579 | 26842 ft | 441 kts | 40° |
| 2026-04-24 11:51 | 34.81337 | 11.83148 | 27146 ft | 443 kts | 39° |
| 2026-04-24 11:51 | 34.83578 | 11.85728 | 27436 ft | 445 kts | 39° |
| 2026-04-24 11:51 | 34.85830 | 11.88320 | 27722 ft | 446 kts | 39° |
| 2026-04-24 11:51 | 34.88088 | 11.90923 | 28009 ft | 448 kts | 39° |
| 2026-04-24 11:52 | 34.90355 | 11.93539 | 28289 ft | 450 kts | 39° |
| 2026-04-24 11:52 | 34.92633 | 11.96170 | 28549 ft | 452 kts | 40° |
| 2026-04-24 11:52 | 34.94923 | 11.98817 | 28780 ft | 455 kts | 40° |
| 2026-04-24 11:52 | 34.97222 | 12.01477 | 29032 ft | 457 kts | 40° |
| 2026-04-24 11:53 | 34.99532 | 12.04146 | 29351 ft | 457 kts | 40° |
| 2026-04-24 11:53 | 35.01808 | 12.06778 | 29694 ft | 458 kts | 41° |
| 2026-04-24 11:53 | 35.04115 | 12.09458 | 30019 ft | 458 kts | 41° |
| 2026-04-24 11:53 | 35.06420 | 12.12142 | 30347 ft | 458 kts | 40° |
| 2026-04-24 11:54 | 35.08723 | 12.14821 | 30650 ft | 457 kts | 40° |
| 2026-04-24 11:54 | 35.11024 | 12.17498 | 30964 ft | 456 kts | 40° |
| 2026-04-24 11:54 | 35.13321 | 12.20172 | 31277 ft | 456 kts | 40° |
| 2026-04-24 11:54 | 35.15644 | 12.22875 | 31602 ft | 455 kts | 40° |
| 2026-04-24 11:55 | 35.17904 | 12.25503 | 31902 ft | 454 kts | 40° |
| 2026-04-24 11:55 | 35.20193 | 12.28164 | 32212 ft | 454 kts | 40° |
| 2026-04-24 11:55 | 35.22479 | 12.30824 | 32522 ft | 453 kts | 40° |
| 2026-04-24 11:55 | 35.24759 | 12.33484 | 32833 ft | 453 kts | 40° |
| 2026-04-24 11:56 | 35.27033 | 12.36143 | 33143 ft | 452 kts | 40° |
| 2026-04-24 11:56 | 35.29304 | 12.38804 | 33455 ft | 451 kts | 40° |
| 2026-04-24 11:56 | 35.31567 | 12.41457 | 33770 ft | 451 kts | 40° |
| 2026-04-24 11:56 | 35.33832 | 12.44114 | 34054 ft | 451 kts | 40° |
| 2026-04-24 11:57 | 35.36097 | 12.46768 | 34319 ft | 450 kts | 40° |
| 2026-04-24 11:57 | 35.38360 | 12.49421 | 34565 ft | 450 kts | 40° |
| 2026-04-24 11:57 | 35.40622 | 12.52073 | 34799 ft | 450 kts | 40° |
| 2026-04-24 11:57 | 35.42881 | 12.54726 | 35032 ft | 450 kts | 40° |
| 2026-04-24 11:58 | 35.47407 | 12.60055 | 35142 ft | 452 kts | 40° |
| 2026-04-24 11:58 | 35.51922 | 12.65429 | 35138 ft | 453 kts | 41° |
| 2026-04-24 11:59 | 35.56323 | 12.70965 | 35138 ft | 453 kts | 43° |
| 2026-04-24 11:59 | 35.60688 | 12.76551 | 35140 ft | 453 kts | 43° |
| 2026-04-24 12:00 | 35.65074 | 12.82117 | 35142 ft | 454 kts | 42° |
| 2026-04-24 12:00 | 35.69481 | 12.87678 | 35146 ft | 454 kts | 42° |
| 2026-04-24 12:01 | 35.73895 | 12.93247 | 35151 ft | 454 kts | 42° |
| 2026-04-24 12:01 | 35.78310 | 12.98814 | 35158 ft | 454 kts | 42° |
| 2026-04-24 12:02 | 35.82762 | 13.04345 | 35166 ft | 454 kts | 42° |
| 2026-04-24 12:02 | 35.87225 | 13.09857 | 35162 ft | 454 kts | 42° |
| 2026-04-24 12:03 | 35.91675 | 13.15389 | 35171 ft | 454 kts | 42° |
| 2026-04-24 12:03 | 35.96123 | 13.20933 | 35167 ft | 454 kts | 42° |
| 2026-04-24 12:04 | 36.00534 | 13.26524 | 35165 ft | 455 kts | 43° |
| 2026-04-24 12:04 | 36.04885 | 13.32193 | 35169 ft | 455 kts | 43° |
| 2026-04-24 12:05 | 36.09225 | 13.37875 | 35167 ft | 454 kts | 43° |
| 2026-04-24 12:05 | 36.13582 | 13.43532 | 35166 ft | 454 kts | 43° |
| 2026-04-24 12:06 | 36.17943 | 13.49177 | 35164 ft | 454 kts | 43° |
| 2026-04-24 12:06 | 36.22295 | 13.54833 | 35182 ft | 453 kts | 43° |
| 2026-04-24 12:07 | 36.26638 | 13.60493 | 35171 ft | 453 kts | 43° |
| 2026-04-24 12:07 | 36.30970 | 13.66157 | 35165 ft | 452 kts | 43° |
| 2026-04-24 12:08 | 36.35297 | 13.71826 | 35162 ft | 452 kts | 43° |
| 2026-04-24 12:08 | 36.39622 | 13.77492 | 35159 ft | 452 kts | 43° |
| 2026-04-24 12:09 | 36.43947 | 13.83159 | 35158 ft | 452 kts | 43° |
| 2026-04-24 12:09 | 36.48263 | 13.88841 | 35176 ft | 452 kts | 43° |
| 2026-04-24 12:10 | 36.52571 | 13.94520 | 35154 ft | 451 kts | 43° |
| 2026-04-24 12:11 | 36.59025 | 14.03038 | 35145 ft | 451 kts | 43° |
| 2026-04-24 12:11 | 36.63293 | 14.08684 | 35147 ft | 451 kts | 43° |
| 2026-04-24 12:12 | 36.67588 | 14.14370 | 35144 ft | 451 kts | 43° |
| 2026-04-24 12:12 | 36.71876 | 14.20063 | 35145 ft | 450 kts | 44° |
| 2026-04-24 12:13 | 36.76156 | 14.25759 | 35152 ft | 450 kts | 43° |
| 2026-04-24 12:13 | 36.80431 | 14.31450 | 35146 ft | 449 kts | 43° |
| 2026-04-24 12:14 | 36.84693 | 14.37139 | 35133 ft | 448 kts | 44° |
| 2026-04-24 12:14 | 36.88993 | 14.42761 | 35128 ft | 447 kts | 41° |
| 2026-04-24 12:15 | 36.93472 | 14.48134 | 35122 ft | 446 kts | 40° |
| 2026-04-24 12:15 | 36.97986 | 14.53448 | 35122 ft | 446 kts | 40° |
| 2026-04-24 12:16 | 37.02455 | 14.58828 | 35124 ft | 446 kts | 41° |
| 2026-04-24 12:16 | 37.06894 | 14.64256 | 35133 ft | 445 kts | 41° |
| 2026-04-24 12:17 | 37.11322 | 14.69675 | 35134 ft | 445 kts | 41° |
| 2026-04-24 12:17 | 37.15745 | 14.75075 | 35130 ft | 444 kts | 41° |
| 2026-04-24 12:18 | 37.20162 | 14.80478 | 35126 ft | 443 kts | 41° |
| 2026-04-24 12:18 | 37.24576 | 14.85886 | 35127 ft | 444 kts | 41° |
| 2026-04-24 12:19 | 37.28986 | 14.91296 | 35126 ft | 443 kts | 41° |
| 2026-04-24 12:19 | 37.33351 | 14.96665 | 35142 ft | 442 kts | 41° |
| 2026-04-24 12:20 | 37.37734 | 15.02061 | 35132 ft | 440 kts | 41° |
| 2026-04-24 12:20 | 37.42105 | 15.07455 | 35129 ft | 440 kts | 41° |
| 2026-04-24 12:21 | 37.46465 | 15.12847 | 35122 ft | 439 kts | 41° |
| 2026-04-24 12:21 | 37.50820 | 15.18244 | 35117 ft | 439 kts | 41° |
| 2026-04-24 12:22 | 37.55171 | 15.23635 | 35113 ft | 439 kts | 41° |
| 2026-04-24 12:22 | 37.59522 | 15.29042 | 35132 ft | 439 kts | 41° |
| 2026-04-24 12:23 | 37.63864 | 15.34444 | 35128 ft | 438 kts | 41° |
| 2026-04-24 12:23 | 37.68198 | 15.39849 | 35129 ft | 438 kts | 41° |
| 2026-04-24 12:24 | 37.72527 | 15.45248 | 35127 ft | 437 kts | 41° |
| 2026-04-24 12:24 | 37.76853 | 15.50645 | 35126 ft | 437 kts | 41° |
| 2026-04-24 12:25 | 37.81174 | 15.56061 | 35125 ft | 437 kts | 41° |
| 2026-04-24 12:25 | 37.85488 | 15.61483 | 35127 ft | 437 kts | 41° |
| 2026-04-24 12:26 | 37.89795 | 15.66907 | 35142 ft | 436 kts | 41° |
| 2026-04-24 12:26 | 37.94099 | 15.72320 | 35137 ft | 436 kts | 41° |
| 2026-04-24 12:27 | 37.98389 | 15.77730 | 35128 ft | 435 kts | 41° |
| 2026-04-24 12:27 | 38.02672 | 15.83144 | 35123 ft | 435 kts | 41° |
| 2026-04-24 12:28 | 38.06950 | 15.88560 | 35122 ft | 434 kts | 42° |
| 2026-04-24 12:28 | 38.11194 | 15.93943 | 35122 ft | 434 kts | 42° |
| 2026-04-24 12:29 | 38.15457 | 15.99364 | 35121 ft | 434 kts | 42° |
| 2026-04-24 12:29 | 38.19719 | 16.04788 | 35133 ft | 433 kts | 42° |
| 2026-04-24 12:30 | 38.23975 | 16.10214 | 35126 ft | 433 kts | 43° |
| 2026-04-24 12:30 | 38.28225 | 16.15652 | 35127 ft | 433 kts | 43° |
| 2026-04-24 12:31 | 38.32468 | 16.21084 | 35116 ft | 432 kts | 43° |
| 2026-04-24 12:31 | 38.36708 | 16.26523 | 35114 ft | 432 kts | 43° |
| 2026-04-24 12:32 | 38.40944 | 16.31961 | 35114 ft | 432 kts | 43° |
| 2026-04-24 12:32 | 38.45181 | 16.37402 | 35128 ft | 432 kts | 43° |
| 2026-04-24 12:33 | 38.49403 | 16.42842 | 35126 ft | 431 kts | 44° |
| 2026-04-24 12:33 | 38.53613 | 16.48284 | 35126 ft | 430 kts | 43° |
| 2026-04-24 12:34 | 38.57825 | 16.53723 | 35123 ft | 430 kts | 44° |
| 2026-04-24 12:34 | 38.62029 | 16.59162 | 35122 ft | 430 kts | 44° |
| 2026-04-24 12:35 | 38.65521 | 16.63699 | 35118 ft | 430 kts | 44° |
| 2026-04-24 12:35 | 38.70399 | 16.70041 | 35138 ft | 430 kts | 44° |
| 2026-04-24 12:36 | 38.73916 | 16.74615 | 35133 ft | 429 kts | 44° |
| 2026-04-24 12:36 | 38.78775 | 16.80948 | 35131 ft | 429 kts | 44° |
| 2026-04-24 12:37 | 38.82268 | 16.85523 | 35125 ft | 428 kts | 44° |
| 2026-04-24 12:37 | 38.86430 | 16.90986 | 35107 ft | 428 kts | 44° |
| 2026-04-24 12:38 | 38.90596 | 16.96444 | 35101 ft | 428 kts | 44° |
| 2026-04-24 12:38 | 38.94756 | 17.01907 | 35100 ft | 427 kts | 44° |
| 2026-04-24 12:39 | 39.03175 | 17.12674 | 35090 ft | 426 kts | 40° |
| 2026-04-24 12:40 | 39.07627 | 17.17719 | 35080 ft | 426 kts | 39° |
| 2026-04-24 12:40 | 39.12084 | 17.22755 | 35082 ft | 426 kts | 40° |
| 2026-04-24 12:41 | 39.16492 | 17.27867 | 35085 ft | 426 kts | 40° |
| 2026-04-24 12:41 | 39.20850 | 17.32980 | 35088 ft | 427 kts | 40° |
| 2026-04-24 12:42 | 39.25246 | 17.38128 | 35089 ft | 427 kts | 40° |
| 2026-04-24 12:42 | 39.29646 | 17.43281 | 35110 ft | 427 kts | 40° |
| 2026-04-24 12:43 | 39.34045 | 17.48440 | 35104 ft | 427 kts | 40° |
| 2026-04-24 12:43 | 39.38438 | 17.53601 | 35104 ft | 426 kts | 40° |
| 2026-04-24 12:44 | 39.42824 | 17.58758 | 35095 ft | 426 kts | 40° |
| 2026-04-24 12:44 | 39.47203 | 17.63918 | 35090 ft | 426 kts | 40° |
| 2026-04-24 12:45 | 39.51578 | 17.69087 | 35085 ft | 426 kts | 40° |
| 2026-04-24 12:45 | 39.55952 | 17.74265 | 35085 ft | 426 kts | 40° |
| 2026-04-24 12:46 | 39.60329 | 17.79448 | 35097 ft | 426 kts | 40° |
| 2026-04-24 12:46 | 39.64700 | 17.84637 | 35096 ft | 426 kts | 40° |
| 2026-04-24 12:47 | 39.69063 | 17.89833 | 35087 ft | 425 kts | 40° |
| 2026-04-24 12:47 | 39.73419 | 17.95032 | 35082 ft | 425 kts | 41° |
| 2026-04-24 12:48 | 39.77772 | 18.00233 | 35077 ft | 425 kts | 41° |
| 2026-04-24 12:48 | 39.82126 | 18.05432 | 35072 ft | 425 kts | 41° |
| 2026-04-24 12:49 | 39.86474 | 18.10649 | 35074 ft | 425 kts | 41° |
| 2026-04-24 12:49 | 39.90819 | 18.15868 | 35070 ft | 425 kts | 41° |
| 2026-04-24 12:50 | 39.95161 | 18.21089 | 35072 ft | 425 kts | 41° |
| 2026-04-24 12:50 | 39.99501 | 18.26313 | 35071 ft | 424 kts | 41° |
| 2026-04-24 12:51 | 40.03806 | 18.31506 | 35067 ft | 424 kts | 41° |
| 2026-04-24 12:51 | 40.08140 | 18.36739 | 35065 ft | 424 kts | 41° |
| 2026-04-24 12:52 | 40.12469 | 18.41985 | 35072 ft | 424 kts | 41° |
| 2026-04-24 12:52 | 40.16793 | 18.47235 | 35084 ft | 424 kts | 41° |
| 2026-04-24 12:53 | 40.21118 | 18.52489 | 35080 ft | 424 kts | 41° |
| 2026-04-24 12:53 | 40.25442 | 18.57747 | 35074 ft | 424 kts | 41° |
| 2026-04-24 12:54 | 40.29756 | 18.63017 | 35070 ft | 424 kts | 42° |
| 2026-04-24 12:54 | 40.34065 | 18.68295 | 35071 ft | 424 kts | 41° |
| 2026-04-24 12:55 | 40.38376 | 18.73576 | 35072 ft | 424 kts | 41° |
| 2026-04-24 12:55 | 40.42681 | 18.78862 | 35096 ft | 424 kts | 42° |
| 2026-04-24 12:56 | 40.46987 | 18.84144 | 35090 ft | 423 kts | 42° |
| 2026-04-24 12:56 | 40.51278 | 18.89419 | 35087 ft | 422 kts | 42° |
| 2026-04-24 12:57 | 40.55555 | 18.94700 | 35081 ft | 422 kts | 42° |
| 2026-04-24 12:57 | 40.59746 | 19.00101 | 35075 ft | 422 kts | 49° |
| 2026-04-24 12:58 | 40.63086 | 19.06469 | 35071 ft | 423 kts | 55° |
| 2026-04-24 12:58 | 40.66320 | 19.12929 | 35080 ft | 422 kts | 55° |
| 2026-04-24 12:59 | 40.69556 | 19.19379 | 35077 ft | 422 kts | 55° |
| 2026-04-24 12:59 | 40.72765 | 19.25784 | 35069 ft | 421 kts | 55° |
| 2026-04-24 13:00 | 40.75982 | 19.32232 | 35057 ft | 421 kts | 56° |
| 2026-04-24 13:00 | 40.79188 | 19.38680 | 35067 ft | 420 kts | 56° |
| 2026-04-24 13:01 | 40.82385 | 19.45124 | 35063 ft | 419 kts | 56° |
| 2026-04-24 13:01 | 40.85570 | 19.51573 | 35067 ft | 419 kts | 56° |
| 2026-04-24 13:02 | 40.88757 | 19.58018 | 35055 ft | 419 kts | 56° |
| 2026-04-24 13:02 | 40.91941 | 19.64465 | 35048 ft | 419 kts | 56° |
| 2026-04-24 13:03 | 40.95119 | 19.70910 | 35046 ft | 418 kts | 56° |
| 2026-04-24 13:03 | 40.98285 | 19.77346 | 35047 ft | 417 kts | 56° |
| 2026-04-24 13:04 | 41.01448 | 19.83790 | 35047 ft | 417 kts | 56° |
| 2026-04-24 13:04 | 41.04598 | 19.90240 | 35041 ft | 417 kts | 56° |
| 2026-04-24 13:05 | 41.07753 | 19.96690 | 35032 ft | 417 kts | 56° |
| 2026-04-24 13:05 | 41.10905 | 20.03147 | 35028 ft | 417 kts | 56° |
| 2026-04-24 13:06 | 41.14047 | 20.09605 | 35020 ft | 417 kts | 56° |
| 2026-04-24 13:06 | 41.17187 | 20.16069 | 35033 ft | 417 kts | 56° |
| 2026-04-24 13:07 | 41.20318 | 20.22541 | 35016 ft | 417 kts | 56° |
| 2026-04-24 13:07 | 41.23440 | 20.29025 | 35016 ft | 416 kts | 57° |
| 2026-04-24 13:08 | 41.26553 | 20.35491 | 35014 ft | 415 kts | 57° |
| 2026-04-24 13:08 | 41.29666 | 20.41952 | 35015 ft | 415 kts | 57° |
| 2026-04-24 13:09 | 41.33968 | 20.51913 | 35012 ft | 416 kts | 68° |
| 2026-04-24 13:09 | 41.35950 | 20.59094 | 35001 ft | 416 kts | 68° |
| 2026-04-24 13:10 | 41.37950 | 20.66310 | 35017 ft | 415 kts | 68° |
| 2026-04-24 13:10 | 41.39946 | 20.73527 | 35016 ft | 415 kts | 68° |
| 2026-04-24 13:11 | 41.41933 | 20.80743 | 35025 ft | 415 kts | 68° |
| 2026-04-24 13:11 | 41.43918 | 20.87966 | 35019 ft | 415 kts | 68° |
| 2026-04-24 13:12 | 41.45893 | 20.95187 | 35013 ft | 415 kts | 68° |
| 2026-04-24 13:12 | 41.47856 | 21.02411 | 35003 ft | 414 kts | 68° |
| 2026-04-24 13:13 | 41.49820 | 21.09619 | 35010 ft | 413 kts | 68° |
| 2026-04-24 13:13 | 41.51778 | 21.16815 | 35026 ft | 412 kts | 68° |
| 2026-04-24 13:14 | 41.53725 | 21.24011 | 35019 ft | 412 kts | 68° |
| 2026-04-24 13:14 | 41.55668 | 21.31203 | 35020 ft | 412 kts | 68° |
| 2026-04-24 13:15 | 41.57601 | 21.38395 | 35009 ft | 412 kts | 69° |
| 2026-04-24 13:15 | 41.59528 | 21.45591 | 35008 ft | 412 kts | 69° |
| 2026-04-24 13:16 | 41.61454 | 21.52788 | 35010 ft | 411 kts | 69° |
| 2026-04-24 13:16 | 41.63373 | 21.59973 | 35010 ft | 411 kts | 69° |
| 2026-04-24 13:17 | 41.65284 | 21.67162 | 35008 ft | 410 kts | 69° |
| 2026-04-24 13:17 | 41.67192 | 21.74352 | 35007 ft | 410 kts | 69° |
| 2026-04-24 13:18 | 41.69092 | 21.81545 | 35012 ft | 410 kts | 69° |
| 2026-04-24 13:18 | 41.70989 | 21.88745 | 34999 ft | 410 kts | 69° |
| 2026-04-24 13:19 | 41.72879 | 21.95939 | 34998 ft | 410 kts | 69° |
| 2026-04-24 13:19 | 41.74764 | 22.03139 | 34997 ft | 409 kts | 69° |
| 2026-04-24 13:20 | 41.76647 | 22.10334 | 34921 ft | 410 kts | 69° |
| 2026-04-24 13:20 | 41.77590 | 22.13949 | 34346 ft | 411 kts | 69° |
| 2026-04-24 13:20 | 41.78528 | 22.17556 | 33713 ft | 408 kts | 69° |
| 2026-04-24 13:21 | 41.79458 | 22.21137 | 33031 ft | 406 kts | 69° |
| 2026-04-24 13:21 | 41.80384 | 22.24706 | 32365 ft | 405 kts | 69° |
| 2026-04-24 13:21 | 41.81309 | 22.28278 | 31699 ft | 406 kts | 69° |
| 2026-04-24 13:21 | 41.82235 | 22.31852 | 31076 ft | 407 kts | 69° |
| 2026-04-24 13:22 | 41.83166 | 22.35443 | 30459 ft | 408 kts | 69° |
| 2026-04-24 13:22 | 41.84098 | 22.39043 | 29809 ft | 410 kts | 69° |
| 2026-04-24 13:22 | 41.85030 | 22.42664 | 29154 ft | 412 kts | 69° |
| 2026-04-24 13:22 | 41.85651 | 22.45079 | 28745 ft | 414 kts | 69° |
| 2026-04-24 13:23 | 41.86589 | 22.48741 | 28160 ft | 415 kts | 69° |
| 2026-04-24 13:23 | 41.87523 | 22.52398 | 27574 ft | 414 kts | 69° |
| 2026-04-24 13:23 | 41.88454 | 22.56044 | 26994 ft | 412 kts | 69° |
| 2026-04-24 13:23 | 41.89383 | 22.59675 | 26429 ft | 411 kts | 69° |
| 2026-04-24 13:24 | 41.90308 | 22.63298 | 25871 ft | 410 kts | 69° |
| 2026-04-24 13:24 | 41.91227 | 22.66903 | 25331 ft | 408 kts | 69° |
| 2026-04-24 13:24 | 41.92147 | 22.70504 | 24785 ft | 407 kts | 69° |
| 2026-04-24 13:24 | 41.93062 | 22.74088 | 24262 ft | 406 kts | 69° |
| 2026-04-24 13:25 | 41.93973 | 22.77674 | 23746 ft | 405 kts | 69° |
| 2026-04-24 13:25 | 41.94877 | 22.81250 | 23198 ft | 404 kts | 69° |
| 2026-04-24 13:25 | 41.95862 | 22.84765 | 22594 ft | 400 kts | 63° |
| 2026-04-24 13:25 | 41.97168 | 22.88040 | 21993 ft | 396 kts | 56° |
| 2026-04-24 13:26 | 41.98792 | 22.91010 | 21438 ft | 393 kts | 48° |
| 2026-04-24 13:26 | 42.00671 | 22.93656 | 20877 ft | 390 kts | 44° |
| 2026-04-24 13:26 | 42.02597 | 22.96210 | 20323 ft | 388 kts | 44° |
| 2026-04-24 13:26 | 42.04512 | 22.98759 | 19777 ft | 387 kts | 44° |
| 2026-04-24 13:27 | 42.06390 | 23.01266 | 19249 ft | 384 kts | 44° |
| 2026-04-24 13:27 | 42.08277 | 23.03799 | 18729 ft | 383 kts | 44° |
| 2026-04-24 13:27 | 42.10184 | 23.06360 | 18228 ft | 381 kts | 44° |
| 2026-04-24 13:27 | 42.12031 | 23.08837 | 17698 ft | 379 kts | 44° |
| 2026-04-24 13:28 | 42.13895 | 23.11335 | 17184 ft | 377 kts | 44° |
| 2026-04-24 13:28 | 42.15745 | 23.13814 | 16661 ft | 374 kts | 44° |
| 2026-04-24 13:28 | 42.17584 | 23.16278 | 16150 ft | 372 kts | 44° |
| 2026-04-24 13:28 | 42.19406 | 23.18724 | 15639 ft | 369 kts | 44° |
| 2026-04-24 13:29 | 42.21223 | 23.21167 | 15140 ft | 367 kts | 43° |
| 2026-04-24 13:29 | 42.23026 | 23.23591 | 14653 ft | 365 kts | 44° |
| 2026-04-24 13:29 | 42.24821 | 23.26010 | 14174 ft | 364 kts | 44° |
| 2026-04-24 13:29 | 42.26603 | 23.28417 | 13689 ft | 362 kts | 44° |
| 2026-04-24 13:30 | 42.28376 | 23.30812 | 13142 ft | 359 kts | 43° |
| 2026-04-24 13:30 | 42.30275 | 23.32978 | 12632 ft | 356 kts | 35° |
| 2026-04-24 13:30 | 42.32282 | 23.34920 | 12103 ft | 354 kts | 35° |
| 2026-04-24 13:30 | 42.34271 | 23.36860 | 11595 ft | 351 kts | 36° |
| 2026-04-24 13:31 | 42.36208 | 23.38862 | 11093 ft | 349 kts | 37° |
| 2026-04-24 13:31 | 42.38096 | 23.40907 | 10599 ft | 347 kts | 38° |
| 2026-04-24 13:31 | 42.39959 | 23.42973 | 10115 ft | 346 kts | 38° |
| 2026-04-24 13:31 | 42.41816 | 23.45042 | 9598 ft | 345 kts | 38° |
| 2026-04-24 13:32 | 42.43657 | 23.47086 | 9072 ft | 341 kts | 38° |
| 2026-04-24 13:32 | 42.45488 | 23.49104 | 8549 ft | 338 kts | 38° |
| 2026-04-24 13:32 | 42.47307 | 23.51098 | 8043 ft | 334 kts | 37° |
| 2026-04-24 13:32 | 42.49098 | 23.53057 | 7660 ft | 327 kts | 38° |
| 2026-04-24 13:33 | 42.50838 | 23.54963 | 7285 ft | 315 kts | 38° |
| 2026-04-24 13:33 | 42.52508 | 23.56796 | 6909 ft | 302 kts | 37° |
| 2026-04-24 13:33 | 42.54104 | 23.58548 | 6540 ft | 288 kts | 37° |
| 2026-04-24 13:33 | 42.55623 | 23.60216 | 6162 ft | 274 kts | 36° |
| 2026-04-24 13:34 | 42.57062 | 23.61797 | 5780 ft | 259 kts | 37° |
| 2026-04-24 13:34 | 42.58374 | 23.63392 | 5395 ft | 249 kts | 46° |
| 2026-04-24 13:34 | 42.59624 | 23.64907 | 5024 ft | 235 kts | 22° |
| 2026-04-24 13:34 | 42.61183 | 23.65308 | 4765 ft | 226 kts | 357° |
| 2026-04-24 13:35 | 42.62747 | 23.65318 | 4548 ft | 224 kts | 0° |
| 2026-04-24 13:35 | 42.64290 | 23.65421 | 4340 ft | 220 kts | 2° |
| 2026-04-24 13:35 | 42.65810 | 23.65540 | 4144 ft | 218 kts | 357° |
| 2026-04-24 13:35 | 42.67209 | 23.64988 | 4019 ft | 207 kts | 325° |
| 2026-04-24 13:36 | 42.68126 | 23.63585 | 4001 ft | 195 kts | 295° |
| 2026-04-24 13:36 | 42.68410 | 23.61861 | 4024 ft | 180 kts | 277° |
| 2026-04-24 13:36 | 42.68510 | 23.60218 | 3992 ft | 171 kts | 277° |
| 2026-04-24 13:36 | 42.68609 | 23.58634 | 3828 ft | 166 kts | 278° |
| 2026-04-24 13:37 | 42.68706 | 23.57085 | 3652 ft | 166 kts | 277° |
| 2026-04-24 13:37 | 42.68803 | 23.55519 | 3447 ft | 163 kts | 276° |
| 2026-04-24 13:37 | 42.68892 | 23.54071 | 3238 ft | 149 kts | 276° |
| 2026-04-24 13:37 | 42.68977 | 23.52694 | 3036 ft | 146 kts | 276° |
| 2026-04-24 13:38 | 42.69060 | 23.51351 | 2843 ft | 141 kts | 276° |
| 2026-04-24 13:38 | 42.69140 | 23.50043 | 2651 ft | 138 kts | 275° |
| 2026-04-24 13:38 | 42.69223 | 23.48746 | 2435 ft | 139 kts | 277° |
| 2026-04-24 13:38 | 42.69299 | 23.47438 | 2275 ft | 139 kts | 278° |
| 2026-04-24 13:39 | 42.69372 | 23.46147 | 2098 ft | 137 kts | 277° |
| 2026-04-24 13:39 | 42.69453 | 23.44850 | 1917 ft | 138 kts | 277° |
| 2026-04-24 13:39 | 42.69536 | 23.43551 | 1768 ft | 137 kts | 275° |
| 2026-04-24 13:39 | 42.69605 | 23.42435 | 1750 ft | 96 kts | 274° |
| 2026-04-24 13:40 | 42.69634 | 23.41807 | 1745 ft | 41 kts | 264° |
| 2026-04-24 13:40 | 42.69572 | 23.41527 | 1748 ft | 19 kts | 245° |
| 2026-04-24 13:40 | 42.69520 | 23.41377 | 1745 ft | 16 kts | 245° |
| 2026-04-24 13:40 | 42.69483 | 23.41253 | 1740 ft | 12 kts | 252° |
| 2026-04-24 13:41 | 42.69408 | 23.41199 | 1750 ft | 13 kts | 191° |
| 2026-04-24 13:41 | 42.69317 | 23.41175 | 1744 ft | 13 kts | 193° |
| 2026-04-24 13:41 | 42.69226 | 23.41149 | 1750 ft | 14 kts | 183° |
| 2026-04-24 13:41 | 42.69141 | 23.41182 | 1750 ft | 12 kts | 161° |
| 2026-04-24 13:42 | 42.69070 | 23.41215 | 1746 ft | 8 kts | 161° |
| 2026-04-24 13:42 | 42.69063 | 23.41259 | 1750 ft | 4 kts | 65° |
| 2026-04-24 13:42 | 42.69070 | 23.41288 | 1748 ft | 2 kts | 72° |
| 2026-04-24 13:42 | 42.69071 | 23.41296 | 1750 ft | 0 kts | 72° |
| 2026-04-24 13:43 | 42.69072 | 23.41299 | 1750 ft | 0 kts | 72° |